createdAt,value
2022-11-03T00:01:38.496Z,5.97
2022-11-03T00:04:07.358Z,5.94
2022-11-03T00:06:36.142Z,5.92
2022-11-03T00:09:06.795Z,5.90
2022-11-03T00:11:36.144Z,5.94
2022-11-03T00:14:06.740Z,5.94
2022-11-03T00:16:36.786Z,5.86
2022-11-03T00:19:04.799Z,5.86
2022-11-03T00:21:33.093Z,5.80
2022-11-03T00:24:02.551Z,5.80
2022-11-03T00:26:31.759Z,5.78
2022-11-03T00:29:01.632Z,5.79
2022-11-03T00:31:31.363Z,5.79
2022-11-03T00:34:01.511Z,5.77
2022-11-03T00:36:31.299Z,5.77
2022-11-03T00:38:59.860Z,5.81
2022-11-03T00:41:28.505Z,5.82
2022-11-03T00:43:57.525Z,5.83
2022-11-03T00:46:26.896Z,5.87
2022-11-03T00:48:54.819Z,5.85
2022-11-03T00:51:25.934Z,5.84
2022-11-03T00:53:55.481Z,5.78
2022-11-03T00:56:25.147Z,5.78
2022-11-03T00:58:54.216Z,5.77
2022-11-03T01:01:24.098Z,5.80
2022-11-03T01:04:08.683Z,5.74
2022-11-03T01:06:53.561Z,5.73
2022-11-03T01:09:24.093Z,5.65
2022-11-03T01:11:57.929Z,5.66
2022-11-03T01:14:27.206Z,5.60
2022-11-03T01:16:55.156Z,5.58
2022-11-03T01:19:23.750Z,5.54
2022-11-03T01:21:53.239Z,5.50
2022-11-03T01:24:21.711Z,5.47
2022-11-03T01:26:49.672Z,5.46
2022-11-03T01:29:18.012Z,5.38
2022-11-03T01:31:46.080Z,5.33
2022-11-03T01:34:16.769Z,5.36
2022-11-03T01:36:45.852Z,5.33
2022-11-03T01:39:17.155Z,5.28
2022-11-03T01:41:47.021Z,5.23
2022-11-03T01:44:31.058Z,5.19
2022-11-03T01:47:20.474Z,5.15
2022-11-03T01:49:50.920Z,5.12
2022-11-03T01:52:24.143Z,5.10
2022-11-03T01:54:59.391Z,5.09
2022-11-03T01:57:33.029Z,5.12
2022-11-03T02:00:02.519Z,5.07
2022-11-03T02:02:41.324Z,5.03
2022-11-03T02:05:11.613Z,5.05
2022-11-03T02:07:43.513Z,5.02
2022-11-03T02:10:12.990Z,5.00
2022-11-03T02:12:41.204Z,4.99
2022-11-03T02:15:12.496Z,5.03
2022-11-03T02:17:42.428Z,4.95
2022-11-03T02:20:14.525Z,4.94
2022-11-03T02:23:15.420Z,4.90
2022-11-03T02:25:49.439Z,4.95
2022-11-03T02:28:20.006Z,4.90
2022-11-03T02:34:06.030Z,4.89
2022-11-03T02:36:38.895Z,4.93
2022-11-03T02:39:10.859Z,4.87
2022-11-03T02:41:41.486Z,4.84
2022-11-03T02:44:16.006Z,4.88
2022-11-03T02:46:45.347Z,4.86
2022-11-03T02:49:13.475Z,4.86
2022-11-03T02:51:41.815Z,4.86
2022-11-03T02:54:15.179Z,4.84
2022-11-03T02:56:50.083Z,4.90
2022-11-03T02:59:22.586Z,4.89
2022-11-03T03:01:56.848Z,4.88
2022-11-03T03:04:29.742Z,4.99
2022-11-03T03:07:02.987Z,4.96
2022-11-03T03:09:35.296Z,4.97
2022-11-03T03:12:07.684Z,4.94
2022-11-03T03:14:39.838Z,4.94
2022-11-03T03:17:14.074Z,4.93
2022-11-03T03:19:50.197Z,4.89
2022-11-03T03:22:25.417Z,4.85
2022-11-03T03:24:58.525Z,4.79
2022-11-03T03:27:30.847Z,4.83
2022-11-03T03:30:02.509Z,4.76
2022-11-03T03:32:37.766Z,4.77
2022-11-03T03:35:09.713Z,4.73
2022-11-03T03:37:40.334Z,4.73
2022-11-03T03:40:12.651Z,4.74
2022-11-03T03:42:44.725Z,4.68
2022-11-03T03:45:14.467Z,4.69
2022-11-03T03:47:42.396Z,4.70
2022-11-03T03:50:10.686Z,4.68
2022-11-03T03:52:39.065Z,4.70
2022-11-03T03:55:13.625Z,4.70
2022-11-03T03:57:43.795Z,4.68
2022-11-03T04:00:16.004Z,4.73
2022-11-03T04:02:44.078Z,4.75
2022-11-03T04:05:12.012Z,4.71
2022-11-03T04:07:49.070Z,4.75
2022-11-03T04:10:18.418Z,4.74
2022-11-03T04:13:06.163Z,4.70
2022-11-03T04:15:51.878Z,4.64
2022-11-03T04:18:38.748Z,4.60
2022-11-03T04:21:24.848Z,4.61
2022-11-03T04:23:55.114Z,4.64
2022-11-03T04:26:23.957Z,4.59
2022-11-03T04:28:54.254Z,4.53
2022-11-03T04:31:22.630Z,4.54
2022-11-03T04:33:50.773Z,4.54
2022-11-03T04:36:20.942Z,4.50
2022-11-03T04:38:49.701Z,4.50
2022-11-03T04:41:21.055Z,4.46
2022-11-03T04:43:51.030Z,4.43
2022-11-03T04:46:26.953Z,4.39
2022-11-03T04:48:56.227Z,4.36
2022-11-03T04:51:27.160Z,4.36
2022-11-03T04:53:56.930Z,4.31
2022-11-03T04:56:26.104Z,4.34
2022-11-03T04:58:54.816Z,4.37
2022-11-03T05:01:25.146Z,4.36
2022-11-03T05:03:55.153Z,4.33
2022-11-03T05:06:25.033Z,4.31
2022-11-03T05:08:57.274Z,4.33
2022-11-03T05:11:32.079Z,4.29
2022-11-03T05:14:03.501Z,4.29
2022-11-03T05:16:32.816Z,4.31
2022-11-03T05:19:01.159Z,4.33
2022-11-03T05:21:29.690Z,4.34
2022-11-03T05:24:03.671Z,4.28
2022-11-03T05:26:35.454Z,4.28
2022-11-03T05:29:05.387Z,4.30
2022-11-03T05:31:37.911Z,4.29
2022-11-03T05:34:29.371Z,4.26
2022-11-03T05:36:59.626Z,4.27
2022-11-03T05:39:31.057Z,4.27
2022-11-03T05:42:00.470Z,4.28
2022-11-03T05:44:36.815Z,4.21
2022-11-03T05:47:14.200Z,4.21
2022-11-03T05:49:42.124Z,4.22
2022-11-03T05:52:20.448Z,4.22
2022-11-03T05:54:49.050Z,4.24
2022-11-03T05:57:19.029Z,4.23
2022-11-03T05:59:48.654Z,4.23
2022-11-03T06:02:34.199Z,4.19
2022-11-03T06:05:03.473Z,4.18
2022-11-03T06:07:32.843Z,4.16
2022-11-03T06:10:00.803Z,4.17
2022-11-03T06:12:31.462Z,4.14
2022-11-03T06:14:59.901Z,4.10
2022-11-03T06:17:29.976Z,4.14
2022-11-03T06:20:00.629Z,4.17
2022-11-03T06:22:31.077Z,4.17
2022-11-03T06:25:02.754Z,4.13
2022-11-03T06:27:33.192Z,4.16
2022-11-03T06:30:04.321Z,4.16
2022-11-03T06:32:34.390Z,4.13
2022-11-03T06:35:02.379Z,4.13
2022-11-03T06:37:33.672Z,4.14
2022-11-03T06:40:24.360Z,4.17
2022-11-03T06:42:54.053Z,4.17
2022-11-03T06:45:24.997Z,4.24
2022-11-03T06:47:55.661Z,4.26
2022-11-03T06:50:26.796Z,4.31
2022-11-03T06:52:56.975Z,4.34
2022-11-03T06:55:27.597Z,4.38
2022-11-03T06:57:59.726Z,4.42
2022-11-03T07:00:35.390Z,4.48
2022-11-03T07:03:11.413Z,4.53
2022-11-03T07:05:40.308Z,4.63
2022-11-03T07:08:20.862Z,4.68
2022-11-03T07:10:51.040Z,4.77
2022-11-03T07:13:23.533Z,4.80
2022-11-03T07:15:52.192Z,4.84
2022-11-03T07:18:25.035Z,4.92
2022-11-03T07:20:54.842Z,4.99
2022-11-03T07:23:25.657Z,5.01
2022-11-03T07:25:55.496Z,5.04
2022-11-03T07:28:27.914Z,5.12
2022-11-03T07:30:57.106Z,5.15
2022-11-03T07:33:29.190Z,5.24
2022-11-03T07:36:14.999Z,5.30
2022-11-03T07:38:44.760Z,5.38
2022-11-03T07:41:19.357Z,5.41
2022-11-03T07:43:54.425Z,5.48
2022-11-03T07:46:23.915Z,5.55
2022-11-03T07:48:55.270Z,5.62
2022-11-03T07:51:25.629Z,5.67
2022-11-03T07:53:56.342Z,5.74
2022-11-03T07:56:27.634Z,5.81
2022-11-03T07:59:01.170Z,5.89
2022-11-03T08:01:31.925Z,5.96
2022-11-03T08:04:05.313Z,6.04
2022-11-03T08:06:33.702Z,6.12
2022-11-03T08:09:01.668Z,6.22
2022-11-03T08:11:30.101Z,6.37
2022-11-03T08:13:58.562Z,6.48
2022-11-03T08:16:26.842Z,6.59
2022-11-03T08:18:55.092Z,6.66
2022-11-03T08:21:32.894Z,6.76
2022-11-03T08:24:00.893Z,6.88
2022-11-03T08:26:29.610Z,6.93
2022-11-03T08:28:58.406Z,7.03
2022-11-03T08:31:26.455Z,7.11
2022-11-03T08:33:54.434Z,7.19
2022-11-03T08:36:22.500Z,7.32
2022-11-03T08:38:51.843Z,7.37
2022-11-03T08:41:19.697Z,7.45
2022-11-03T08:43:47.915Z,7.53
2022-11-03T08:46:18.017Z,7.63
2022-11-03T08:48:47.120Z,7.73
2022-11-03T08:51:15.982Z,7.80
2022-11-03T08:53:44.922Z,7.87
2022-11-03T08:56:17.010Z,7.96
2022-11-03T08:58:47.461Z,8.03
2022-11-03T09:01:15.911Z,8.11
2022-11-03T09:03:44.172Z,8.19
2022-11-03T09:06:12.145Z,8.27
2022-11-03T09:11:29.461Z,8.40
2022-11-03T09:13:57.925Z,8.49
2022-11-03T09:16:27.391Z,8.56
2022-11-03T09:18:55.468Z,8.62
2022-11-03T09:21:23.531Z,8.68
2022-11-03T09:23:51.558Z,8.73
2022-11-03T09:26:19.622Z,8.78
2022-11-03T09:28:49.606Z,8.83
2022-11-03T09:31:17.786Z,8.88
2022-11-03T09:33:45.836Z,8.92
2022-11-03T09:36:13.839Z,8.97
2022-11-03T09:38:42.284Z,9.03
2022-11-03T09:41:26.451Z,9.07
2022-11-03T09:44:04.851Z,9.12
2022-11-03T09:46:33.156Z,9.19
2022-11-03T09:49:01.195Z,9.24
2022-11-03T09:51:29.988Z,9.29
2022-11-03T09:54:00.912Z,9.34
2022-11-03T09:56:29.147Z,9.39
2022-11-03T09:58:57.235Z,9.44
2022-11-03T10:01:27.432Z,9.50
2022-11-03T10:04:00.749Z,9.55
2022-11-03T10:06:29.273Z,9.61
2022-11-03T10:08:57.483Z,9.66
2022-11-03T10:11:25.501Z,9.71
2022-11-03T10:13:55.871Z,9.77
2022-11-03T10:16:26.973Z,9.83
2022-11-03T10:18:55.294Z,9.89
2022-11-03T10:21:28.641Z,9.94
2022-11-03T10:23:56.580Z,9.95
2022-11-03T10:26:24.532Z,9.96
2022-11-03T10:29:00.483Z,9.98
2022-11-03T10:31:37.949Z,10.01
2022-11-03T10:34:07.713Z,10.02
2022-11-03T10:36:36.373Z,10.07
2022-11-03T10:39:26.645Z,10.14
2022-11-03T10:41:59.657Z,10.19
2022-11-03T10:44:28.828Z,10.25
2022-11-03T10:47:00.387Z,10.30
2022-11-03T10:49:30.378Z,10.34
2022-11-03T10:52:09.277Z,10.39
2022-11-03T10:54:38.149Z,10.45
2022-11-03T10:57:06.374Z,10.50
2022-11-03T10:59:38.227Z,10.52
2022-11-03T11:02:18.564Z,10.55
2022-11-03T11:04:49.254Z,10.60
2022-11-03T11:07:23.298Z,10.62
2022-11-03T11:09:51.508Z,10.66
2022-11-03T11:12:22.334Z,10.70
2022-11-03T11:14:55.924Z,10.74
2022-11-03T11:17:49.592Z,10.80
2022-11-03T11:20:35.595Z,10.85
2022-11-03T11:23:49.852Z,10.88
2022-11-03T11:26:35.451Z,10.95
2022-11-03T11:29:43.362Z,10.99
2022-11-03T11:32:47.662Z,11.06
2022-11-03T11:35:38.161Z,11.10
2022-11-03T11:38:42.199Z,11.17
2022-11-03T11:41:10.133Z,11.20
2022-11-03T11:43:38.186Z,11.26
2022-11-03T11:46:42.450Z,11.30
2022-11-03T11:49:20.310Z,11.33
2022-11-03T11:51:49.738Z,11.35
2022-11-03T11:54:21.367Z,11.39
2022-11-03T11:56:52.869Z,11.43
2022-11-03T11:59:25.632Z,11.45
2022-11-03T12:01:56.925Z,11.46
2022-11-03T12:04:29.211Z,11.48
2022-11-03T12:06:58.666Z,11.51
2022-11-03T12:09:28.614Z,11.53
2022-11-03T12:12:00.728Z,11.55
2022-11-03T12:14:37.758Z,11.54
2022-11-03T12:17:32.864Z,11.55
2022-11-03T12:20:22.514Z,11.55
2022-11-03T12:22:51.946Z,11.55
2022-11-03T12:25:37.148Z,11.54
2022-11-03T12:28:05.550Z,11.54
2022-11-03T12:30:39.480Z,11.56
2022-11-03T12:33:08.212Z,11.57
2022-11-03T12:35:36.374Z,11.60
2022-11-03T12:38:05.635Z,11.59
2022-11-03T12:40:33.897Z,11.59
2022-11-03T12:43:02.178Z,11.60
2022-11-03T12:45:30.379Z,11.61
2022-11-03T12:47:58.963Z,11.63
2022-11-03T12:50:27.463Z,11.63
2022-11-03T12:52:57.052Z,11.63
2022-11-03T12:58:00.499Z,11.64
2022-11-03T13:00:28.486Z,11.66
2022-11-03T13:02:56.680Z,11.65
2022-11-03T13:05:25.823Z,11.66
2022-11-03T13:07:54.249Z,11.66
2022-11-03T13:10:22.285Z,11.68
2022-11-03T13:12:51.566Z,11.70
2022-11-03T13:15:19.724Z,11.71
2022-11-03T13:20:36.252Z,11.74
2022-11-03T13:23:04.980Z,11.74
2022-11-03T13:25:33.315Z,11.74
2022-11-03T13:28:04.082Z,11.76
2022-11-03T13:30:33.667Z,11.78
2022-11-03T13:33:02.364Z,11.80
2022-11-03T13:35:30.462Z,11.82
2022-11-03T13:37:58.450Z,11.84
2022-11-03T13:40:54.836Z,11.86
2022-11-03T13:43:15.669Z,11.86
2022-11-03T13:45:43.629Z,11.89
2022-11-03T13:51:00.277Z,11.91
2022-11-03T13:56:21.402Z,11.93
2022-11-03T14:01:41.471Z,11.92
2022-11-03T14:06:58.376Z,11.91
2022-11-03T14:09:26.497Z,11.91
2022-11-03T14:12:17.122Z,11.92
2022-11-03T14:14:46.441Z,11.92
2022-11-03T14:17:14.571Z,11.91
2022-11-03T14:19:46.179Z,11.90
2022-11-03T14:22:18.512Z,11.88
2022-11-03T14:24:46.479Z,11.87
2022-11-03T14:27:15.786Z,11.84
2022-11-03T14:29:44.297Z,11.83
2022-11-03T14:32:13.790Z,11.81
2022-11-03T14:34:41.853Z,11.81
2022-11-03T14:37:10.017Z,11.80
2022-11-03T14:39:38.592Z,11.81
2022-11-03T14:42:06.590Z,11.79
2022-11-03T14:44:35.982Z,11.79
2022-11-03T14:47:05.664Z,11.76
2022-11-03T14:49:36.508Z,11.75
2022-11-03T14:52:07.228Z,11.74
2022-11-03T14:54:36.075Z,11.73
2022-11-03T14:57:04.856Z,11.71
2022-11-03T14:59:33.223Z,11.69
2022-11-03T15:02:01.649Z,11.70
2022-11-03T15:04:29.792Z,11.66
2022-11-03T15:06:59.107Z,11.64
2022-11-03T15:09:27.104Z,11.62
2022-11-03T15:11:55.252Z,11.61
2022-11-03T15:14:23.149Z,11.61
2022-11-03T15:16:51.139Z,11.61
2022-11-03T15:19:18.986Z,11.59
2022-11-03T15:21:46.944Z,11.55
2022-11-03T15:27:04.405Z,11.49
2022-11-03T15:29:32.363Z,11.45
2022-11-03T15:32:00.883Z,11.47
2022-11-03T15:34:29.668Z,11.48
2022-11-03T15:36:57.650Z,11.46
2022-11-03T15:39:29.656Z,11.46
2022-11-03T15:41:57.596Z,11.46
2022-11-03T15:44:25.554Z,11.48
2022-11-03T15:46:53.397Z,11.47
2022-11-03T15:49:21.378Z,11.44
2022-11-03T15:51:49.311Z,11.44
2022-11-03T15:54:17.706Z,11.45
2022-11-03T15:56:47.156Z,11.46
2022-11-03T15:59:15.024Z,11.43
2022-11-03T16:01:43.099Z,11.42
2022-11-03T16:04:11.339Z,11.41
2022-11-03T16:07:07.303Z,11.40
2022-11-03T16:09:27.135Z,11.39
2022-11-03T16:11:56.483Z,11.39
2022-11-03T16:14:24.450Z,11.38
2022-11-03T16:16:52.519Z,11.35
2022-11-03T16:19:20.471Z,11.35
2022-11-03T16:21:48.489Z,11.32
2022-11-03T16:24:16.414Z,11.33
2022-11-03T16:26:44.414Z,11.31
2022-11-03T16:29:13.819Z,11.31
2022-11-03T16:31:41.751Z,11.32
2022-11-03T16:34:10.018Z,11.33
2022-11-03T16:36:37.972Z,11.28
2022-11-03T16:39:05.870Z,11.24
2022-11-03T16:41:33.854Z,11.23
2022-11-03T16:44:01.710Z,11.20
2022-11-03T16:46:31.139Z,11.23
2022-11-03T16:51:28.290Z,11.20
2022-11-03T16:53:58.182Z,11.21
2022-11-03T16:56:26.071Z,11.18
2022-11-03T16:58:54.048Z,11.17
2022-11-03T17:01:22.061Z,11.13
2022-11-03T17:03:52.400Z,11.11
2022-11-03T17:06:20.551Z,11.12
2022-11-03T17:08:53.265Z,11.13
2022-11-03T17:11:35.873Z,11.11
2022-11-03T17:14:06.376Z,11.11
2022-11-03T17:16:34.559Z,11.09
2022-11-03T17:19:04.375Z,11.11
2022-11-03T17:21:32.265Z,11.10
2022-11-03T17:24:00.337Z,11.12
2022-11-03T17:26:42.915Z,11.11
2022-11-03T17:29:18.485Z,11.10
2022-11-03T17:31:46.572Z,11.09
2022-11-03T17:34:17.827Z,11.06
2022-11-03T17:36:45.944Z,11.05
2022-11-03T17:39:17.240Z,11.05
2022-11-03T17:41:45.307Z,11.02
2022-11-03T17:44:14.639Z,11.03
2022-11-03T17:46:42.650Z,11.05
2022-11-03T17:49:10.820Z,11.03
2022-11-03T17:51:43.976Z,11.03
2022-11-03T17:54:17.881Z,10.99
2022-11-03T17:56:46.231Z,11.00
2022-11-03T17:59:16.411Z,11.04
2022-11-03T18:01:48.384Z,11.02
2022-11-03T18:04:16.555Z,11.03
2022-11-03T18:06:48.788Z,11.04
2022-11-03T18:09:17.223Z,11.03
2022-11-03T18:12:03.259Z,11.05
2022-11-03T18:14:31.404Z,11.03
2022-11-03T18:16:59.821Z,11.01
2022-11-03T18:19:28.013Z,11.01
2022-11-03T18:21:57.470Z,11.00
2022-11-03T18:24:26.825Z,11.00
2022-11-03T18:26:55.242Z,10.99
2022-11-03T18:29:23.239Z,11.00
2022-11-03T18:31:51.294Z,10.99
2022-11-03T18:34:23.261Z,11.01
2022-11-03T18:36:52.598Z,11.00
2022-11-03T18:39:24.367Z,10.99
2022-11-03T18:41:52.458Z,11.00
2022-11-03T18:44:22.707Z,11.00
2022-11-03T18:46:52.370Z,10.98
2022-11-03T18:49:20.620Z,11.00
2022-11-03T18:51:51.104Z,10.98
2022-11-03T18:54:24.208Z,10.97
2022-11-03T18:56:53.963Z,10.94
2022-11-03T18:59:25.767Z,10.94
2022-11-03T19:01:54.347Z,10.91
2022-11-03T19:04:22.482Z,10.94
2022-11-03T19:06:52.241Z,10.93
2022-11-03T19:09:24.716Z,10.91
2022-11-03T19:11:55.626Z,10.93
2022-11-03T19:14:27.272Z,10.91
2022-11-03T19:19:45.261Z,10.90
2022-11-03T19:22:14.886Z,10.85
2022-11-03T19:24:44.816Z,10.85
2022-11-03T19:27:18.010Z,10.88
2022-11-03T19:29:47.951Z,10.85
2022-11-03T19:32:21.942Z,10.84
2022-11-03T19:34:56.309Z,10.82
2022-11-03T19:37:24.368Z,10.79
2022-11-03T19:39:53.991Z,10.76
2022-11-03T19:42:33.125Z,10.76
2022-11-03T19:45:02.549Z,10.74
2022-11-03T19:47:34.716Z,10.68
2022-11-03T19:50:04.405Z,10.61
2022-11-03T19:52:33.063Z,10.65
2022-11-03T19:55:05.636Z,10.65
2022-11-03T19:57:34.100Z,10.62
2022-11-03T20:00:03.178Z,10.64
2022-11-03T20:02:35.981Z,10.64
2022-11-03T20:05:04.352Z,10.60
2022-11-03T20:07:32.416Z,10.61
2022-11-03T20:10:02.582Z,10.54
2022-11-03T20:12:32.358Z,10.56
2022-11-03T20:15:00.393Z,10.55
2022-11-03T20:17:28.640Z,10.55
2022-11-03T20:19:56.557Z,10.56
2022-11-03T20:22:29.142Z,10.53
2022-11-03T20:25:00.384Z,10.54
2022-11-03T20:27:28.537Z,10.50
2022-11-03T20:29:57.847Z,10.54
2022-11-03T20:32:25.779Z,10.49
2022-11-03T20:34:53.689Z,10.49
2022-11-03T20:37:21.798Z,10.49
2022-11-03T20:39:50.156Z,10.49
2022-11-03T20:42:21.913Z,10.50
2022-11-03T20:44:50.233Z,10.45
2022-11-03T20:47:20.960Z,10.44
2022-11-03T20:49:49.059Z,10.46
2022-11-03T20:52:17.467Z,10.43
2022-11-03T20:54:45.765Z,10.43
2022-11-03T20:57:14.394Z,10.41
2022-11-03T20:59:42.369Z,10.40
2022-11-03T21:02:14.467Z,10.39
2022-11-03T21:04:44.096Z,10.39
2022-11-03T21:07:13.766Z,10.37
2022-11-03T21:09:41.977Z,10.33
2022-11-03T21:12:13.887Z,10.28
2022-11-03T21:15:05.125Z,10.30
2022-11-03T21:17:50.827Z,10.27
2022-11-03T21:20:20.125Z,10.26
2022-11-03T21:22:52.899Z,10.29
2022-11-03T21:25:24.398Z,10.24
2022-11-03T21:27:53.705Z,10.22
2022-11-03T21:30:21.869Z,10.25
2022-11-03T21:32:49.793Z,10.24
2022-11-03T21:35:20.565Z,10.26
2022-11-03T21:37:50.155Z,10.21
2022-11-03T21:40:18.708Z,10.25
2022-11-03T21:43:04.395Z,10.27
2022-11-03T21:45:32.365Z,10.28
2022-11-03T21:48:18.430Z,10.27
2022-11-03T21:50:46.536Z,10.29
2022-11-03T21:53:15.943Z,10.28
2022-11-03T21:55:43.940Z,10.26
2022-11-03T21:58:12.717Z,10.27
2022-11-03T22:00:40.659Z,10.22
2022-11-03T22:03:08.855Z,10.15
2022-11-03T22:05:37.407Z,10.21
2022-11-03T22:08:08.509Z,10.21
2022-11-03T22:10:40.630Z,10.18
2022-11-03T22:13:08.953Z,10.18
2022-11-03T22:15:54.541Z,10.16
2022-11-03T22:18:22.517Z,10.19
2022-11-03T22:21:08.045Z,10.18
2022-11-03T22:24:07.774Z,10.19
2022-11-03T22:26:54.518Z,10.18
2022-11-03T22:29:39.817Z,10.15
2022-11-03T22:32:14.178Z,10.15
2022-11-03T22:34:59.749Z,10.19
2022-11-03T22:37:27.673Z,10.15
2022-11-03T22:40:13.202Z,10.15
2022-11-03T22:42:59.792Z,10.16
2022-11-03T22:45:45.054Z,10.15
2022-11-03T22:48:13.700Z,10.13
2022-11-03T22:50:41.721Z,10.15
2022-11-03T22:53:23.562Z,10.13
2022-11-03T22:55:51.470Z,10.14
2022-11-03T22:58:20.826Z,10.10
2022-11-03T23:00:48.836Z,10.09
2022-11-03T23:03:18.083Z,10.04
2022-11-03T23:05:45.977Z,10.10
2022-11-03T23:08:14.056Z,10.05
2022-11-03T23:10:42.069Z,10.02
2022-11-03T23:13:10.389Z,10.02
2022-11-03T23:15:43.681Z,10.01
2022-11-03T23:18:29.294Z,9.98
2022-11-03T23:21:09.719Z,9.93
2022-11-03T23:23:56.896Z,9.94
2022-11-03T23:26:27.193Z,9.92
2022-11-03T23:28:55.309Z,9.90
2022-11-03T23:31:24.614Z,9.87
2022-11-03T23:33:52.611Z,9.86
2022-11-03T23:36:20.846Z,9.84
2022-11-03T23:38:48.913Z,9.86
2022-11-03T23:41:18.814Z,9.84
2022-11-03T23:43:47.482Z,9.85
2022-11-03T23:46:34.862Z,9.85
2022-11-03T23:49:04.865Z,9.82
2022-11-03T23:51:34.191Z,9.78
2022-11-03T23:54:03.304Z,9.78
2022-11-03T23:56:53.606Z,9.74
2022-11-03T23:59:21.755Z,9.72
